sensor_id;sensor_type;location;lat;lon;timestamp;pressure;altitude;pressure_sealevel;temperature;humidity
18509;BME280;9383;50.928;12.116;2022-08-14T00:01:03;98666.19;;;16.86;79.80
18509;BME280;9383;50.928;12.116;2022-08-14T00:03:30;98704.56;;;17.14;79.70
18509;BME280;9383;50.928;12.116;2022-08-14T00:05:59;98664.16;;;16.90;79.99
18509;BME280;9383;50.928;12.116;2022-08-14T00:08:26;98671.22;;;16.91;80.33
18509;BME280;9383;50.928;12.116;2022-08-14T00:10:53;98601.97;;;16.44;80.42
18509;BME280;9383;50.928;12.116;2022-08-14T00:13:23;98698.09;;;17.04;80.81
18509;BME280;9383;50.928;12.116;2022-08-14T00:15:55;98699.16;;;17.01;81.19
18509;BME280;9383;50.928;12.116;2022-08-14T00:18:25;98691.56;;;16.93;81.23
18509;BME280;9383;50.928;12.116;2022-08-14T00:20:53;98687.84;;;16.96;81.54
18509;BME280;9383;50.928;12.116;2022-08-14T00:23:19;98634.44;;;16.52;81.98
18509;BME280;9383;50.928;12.116;2022-08-14T00:25:50;98622.13;;;16.50;82.10
18509;BME280;9383;50.928;12.116;2022-08-14T00:28:17;98695.41;;;16.89;82.09
18509;BME280;9383;50.928;12.116;2022-08-14T00:30:47;98701.53;;;16.91;82.31
18509;BME280;9383;50.928;12.116;2022-08-14T00:33:13;98697.25;;;16.88;82.15
18509;BME280;9383;50.928;12.116;2022-08-14T00:35:40;98697.34;;;16.87;82.30
18509;BME280;9383;50.928;12.116;2022-08-14T00:38:06;98690.66;;;16.80;82.34
18509;BME280;9383;50.928;12.116;2022-08-14T00:40:32;98670.16;;;16.66;82.15
18509;BME280;9383;50.928;12.116;2022-08-14T00:42:58;98683.34;;;16.69;82.04
18509;BME280;9383;50.928;12.116;2022-08-14T00:45:24;98675.88;;;16.59;82.16
18509;BME280;9383;50.928;12.116;2022-08-14T00:47:52;98677.31;;;16.65;82.10
18509;BME280;9383;50.928;12.116;2022-08-14T00:50:20;98608.06;;;16.19;82.23
18509;BME280;9383;50.928;12.116;2022-08-14T00:52:51;98691.06;;;16.73;82.85
18509;BME280;9383;50.928;12.116;2022-08-14T00:55:19;98687.63;;;16.71;82.73
18509;BME280;9383;50.928;12.116;2022-08-14T00:57:46;98655.94;;;16.51;83.00
18509;BME280;9383;50.928;12.116;2022-08-14T01:00:33;98687.94;;;16.67;83.13
18509;BME280;9383;50.928;12.116;2022-08-14T01:03:00;98654.50;;;16.45;82.98
18509;BME280;9383;50.928;12.116;2022-08-14T01:05:27;98594.66;;;16.04;82.92
18509;BME280;9383;50.928;12.116;2022-08-14T01:07:55;98652.34;;;16.37;83.20
18509;BME280;9383;50.928;12.116;2022-08-14T01:10:26;98631.91;;;16.22;83.51
18509;BME280;9383;50.928;12.116;2022-08-14T01:13:15;98581.41;;;15.88;83.26
18509;BME280;9383;50.928;12.116;2022-08-14T01:15:44;98682.41;;;16.55;83.61
18509;BME280;9383;50.928;12.116;2022-08-14T01:18:11;98656.94;;;16.35;83.38
18509;BME280;9383;50.928;12.116;2022-08-14T01:20:58;98658.34;;;16.41;83.57
18509;BME280;9383;50.928;12.116;2022-08-14T01:23:40;98620.94;;;16.12;83.53
18509;BME280;9383;50.928;12.116;2022-08-14T01:26:08;98616.84;;;16.06;83.65
18509;BME280;9383;50.928;12.116;2022-08-14T01:28:35;98668.94;;;16.42;83.73
18509;BME280;9383;50.928;12.116;2022-08-14T01:31:16;98669.81;;;16.43;84.06
18509;BME280;9383;50.928;12.116;2022-08-14T01:33:47;98669.06;;;16.41;84.02
18509;BME280;9383;50.928;12.116;2022-08-14T01:36:16;98606.53;;;16.00;84.31
18509;BME280;9383;50.928;12.116;2022-08-14T01:38:44;98656.16;;;16.33;84.68
18509;BME280;9383;50.928;12.116;2022-08-14T01:41:17;98666.66;;;16.36;84.80
18509;BME280;9383;50.928;12.116;2022-08-14T01:43:59;98608.25;;;16.01;84.90
18509;BME280;9383;50.928;12.116;2022-08-14T01:46:30;98636.69;;;16.16;85.18
18509;BME280;9383;50.928;12.116;2022-08-14T01:48:58;98555.13;;;15.66;85.12
18509;BME280;9383;50.928;12.116;2022-08-14T01:51:26;98612.91;;;15.97;85.14
18509;BME280;9383;50.928;12.116;2022-08-14T01:54:00;98644.91;;;16.13;85.23
18509;BME280;9383;50.928;12.116;2022-08-14T01:56:32;98570.13;;;15.68;84.95
18509;BME280;9383;50.928;12.116;2022-08-14T01:59:18;98659.41;;;16.24;86.35
18509;BME280;9383;50.928;12.116;2022-08-14T02:01:52;98652.44;;;16.21;86.81
18509;BME280;9383;50.928;12.116;2022-08-14T02:04:22;98550.66;;;15.52;86.68
18509;BME280;9383;50.928;12.116;2022-08-14T02:06:49;98553.63;;;15.47;87.01
18509;BME280;9383;50.928;12.116;2022-08-14T02:09:17;98641.19;;;16.01;87.05
18509;BME280;9383;50.928;12.116;2022-08-14T02:11:44;98666.41;;;16.12;87.10
18509;BME280;9383;50.928;12.116;2022-08-14T02:14:12;98671.75;;;16.12;87.14
18509;BME280;9383;50.928;12.116;2022-08-14T02:16:43;98642.53;;;15.94;87.24
18509;BME280;9383;50.928;12.116;2022-08-14T02:19:15;98608.97;;;15.74;87.42
18509;BME280;9383;50.928;12.116;2022-08-14T02:21:45;98661.44;;;16.06;87.16
18509;BME280;9383;50.928;12.116;2022-08-14T02:24:14;98565.34;;;15.44;87.01
18509;BME280;9383;50.928;12.116;2022-08-14T02:26:43;98640.88;;;15.92;86.89
18509;BME280;9383;50.928;12.116;2022-08-14T02:29:19;98646.22;;;15.92;87.02
18509;BME280;9383;50.928;12.116;2022-08-14T02:31:51;98656.56;;;15.98;87.20
18509;BME280;9383;50.928;12.116;2022-08-14T02:34:29;98570.81;;;15.43;86.98
18509;BME280;9383;50.928;12.116;2022-08-14T02:37:10;98564.88;;;15.38;87.43
18509;BME280;9383;50.928;12.116;2022-08-14T02:39:43;98642.81;;;15.89;87.50
18509;BME280;9383;50.928;12.116;2022-08-14T02:42:15;98642.97;;;15.86;87.23
18509;BME280;9383;50.928;12.116;2022-08-14T02:44:43;98606.78;;;15.66;86.95
18509;BME280;9383;50.928;12.116;2022-08-14T02:47:10;98635.41;;;15.79;87.00
18509;BME280;9383;50.928;12.116;2022-08-14T02:49:37;98645.06;;;15.81;87.20
18509;BME280;9383;50.928;12.116;2022-08-14T02:52:05;98607.06;;;15.61;87.53
18509;BME280;9383;50.928;12.116;2022-08-14T02:54:33;98532.59;;;15.12;87.91
18509;BME280;9383;50.928;12.116;2022-08-14T02:57:02;98597.31;;;15.46;88.09
18509;BME280;9383;50.928;12.116;2022-08-14T02:59:34;98638.75;;;15.68;88.20
18509;BME280;9383;50.928;12.116;2022-08-14T03:02:02;98641.25;;;15.71;87.93
18509;BME280;9383;50.928;12.116;2022-08-14T03:04:29;98619.66;;;15.59;87.81
18509;BME280;9383;50.928;12.116;2022-08-14T03:06:57;98645.81;;;15.69;87.73
18509;BME280;9383;50.928;12.116;2022-08-14T03:09:24;98643.31;;;15.66;87.54
18509;BME280;9383;50.928;12.116;2022-08-14T03:11:50;98629.84;;;15.53;87.52
18509;BME280;9383;50.928;12.116;2022-08-14T03:14:17;98648.09;;;15.60;87.25
18509;BME280;9383;50.928;12.116;2022-08-14T03:16:44;98586.28;;;15.22;87.38
18509;BME280;9383;50.928;12.116;2022-08-14T03:19:10;98600.13;;;15.28;87.67
18509;BME280;9383;50.928;12.116;2022-08-14T03:21:37;98532.91;;;14.91;87.98
18509;BME280;9383;50.928;12.116;2022-08-14T03:24:05;98636.91;;;15.54;88.18
18509;BME280;9383;50.928;12.116;2022-08-14T03:26:35;98580.38;;;15.16;87.89
18509;BME280;9383;50.928;12.116;2022-08-14T03:29:03;98621.34;;;15.46;88.09
18509;BME280;9383;50.928;12.116;2022-08-14T03:31:29;98593.34;;;15.23;87.75
18509;BME280;9383;50.928;12.116;2022-08-14T03:33:56;98616.75;;;15.33;87.46
18509;BME280;9383;50.928;12.116;2022-08-14T03:36:23;98634.91;;;15.43;87.51
18509;BME280;9383;50.928;12.116;2022-08-14T03:38:51;98579.69;;;15.13;87.78
18509;BME280;9383;50.928;12.116;2022-08-14T03:41:26;98626.22;;;15.39;87.47
18509;BME280;9383;50.928;12.116;2022-08-14T03:43:59;98624.56;;;15.37;87.51
18509;BME280;9383;50.928;12.116;2022-08-14T03:46:30;98621.22;;;15.33;87.35
18509;BME280;9383;50.928;12.116;2022-08-14T03:48:57;98621.41;;;15.30;87.20
18509;BME280;9383;50.928;12.116;2022-08-14T03:51:26;98619.69;;;15.29;87.56
18509;BME280;9383;50.928;12.116;2022-08-14T03:53:56;98614.53;;;15.26;87.53
18509;BME280;9383;50.928;12.116;2022-08-14T03:56:24;98615.56;;;15.23;87.76
18509;BME280;9383;50.928;12.116;2022-08-14T03:58:56;98620.03;;;15.23;87.67
18509;BME280;9383;50.928;12.116;2022-08-14T04:01:24;98576.06;;;14.83;87.94
18509;BME280;9383;50.928;12.116;2022-08-14T04:03:53;98619.47;;;15.17;87.77
18509;BME280;9383;50.928;12.116;2022-08-14T04:06:20;98528.09;;;14.51;87.53
18509;BME280;9383;50.928;12.116;2022-08-14T04:08:47;98613.91;;;15.06;87.87
18509;BME280;9383;50.928;12.116;2022-08-14T04:11:16;98618.22;;;15.09;87.66
18509;BME280;9383;50.928;12.116;2022-08-14T04:13:42;98570.16;;;14.78;87.57
18509;BME280;9383;50.928;12.116;2022-08-14T04:16:15;98605.41;;;14.99;88.02
18509;BME280;9383;50.928;12.116;2022-08-14T04:18:52;98497.06;;;14.34;88.02
18509;BME280;9383;50.928;12.116;2022-08-14T04:21:23;98604.38;;;15.02;88.37
18509;BME280;9383;50.928;12.116;2022-08-14T04:23:51;98595.59;;;15.00;88.51
18509;BME280;9383;50.928;12.116;2022-08-14T04:26:18;98595.59;;;15.00;88.67
18509;BME280;9383;50.928;12.116;2022-08-14T04:28:45;98535.41;;;14.63;88.82
18509;BME280;9383;50.928;12.116;2022-08-14T04:31:12;98569.97;;;14.81;89.00
18509;BME280;9383;50.928;12.116;2022-08-14T04:33:38;98499.56;;;14.37;88.79
18509;BME280;9383;50.928;12.116;2022-08-14T04:36:04;98581.25;;;14.86;89.12
18509;BME280;9383;50.928;12.116;2022-08-14T04:38:31;98506.72;;;14.37;89.14
18509;BME280;9383;50.928;12.116;2022-08-14T04:41:15;98532.31;;;14.55;89.46
18509;BME280;9383;50.928;12.116;2022-08-14T04:44:00;98589.06;;;14.89;90.04
18509;BME280;9383;50.928;12.116;2022-08-14T04:46:26;98600.25;;;14.96;90.18
18509;BME280;9383;50.928;12.116;2022-08-14T04:48:53;98586.78;;;14.98;90.59
18509;BME280;9383;50.928;12.116;2022-08-14T04:51:21;98540.53;;;14.67;90.93
18509;BME280;9383;50.928;12.116;2022-08-14T04:53:54;98545.19;;;14.79;91.26
18509;BME280;9383;50.928;12.116;2022-08-14T04:56:23;98556.16;;;14.89;91.57
18509;BME280;9383;50.928;12.116;2022-08-14T04:58:54;98519.88;;;14.70;91.35
18509;BME280;9383;50.928;12.116;2022-08-14T05:01:25;98578.75;;;15.14;91.49
18509;BME280;9383;50.928;12.116;2022-08-14T05:03:52;98571.41;;;15.17;91.40
18509;BME280;9383;50.928;12.116;2022-08-14T05:06:20;98571.13;;;15.22;91.42
18509;BME280;9383;50.928;12.116;2022-08-14T05:08:47;98494.75;;;14.74;91.06
18509;BME280;9383;50.928;12.116;2022-08-14T05:11:13;98508.25;;;14.87;91.26
18509;BME280;9383;50.928;12.116;2022-08-14T05:13:40;98563.41;;;15.32;91.50
18509;BME280;9383;50.928;12.116;2022-08-14T05:16:09;98564.09;;;15.36;91.57
18509;BME280;9383;50.928;12.116;2022-08-14T05:18:38;98558.00;;;15.33;91.93
18509;BME280;9383;50.928;12.116;2022-08-14T05:21:07;98502.94;;;15.02;92.18
18509;BME280;9383;50.928;12.116;2022-08-14T05:23:37;98560.69;;;15.48;92.36
18509;BME280;9383;50.928;12.116;2022-08-14T05:26:05;98446.00;;;14.87;92.24
18509;BME280;9383;50.928;12.116;2022-08-14T05:28:42;98562.50;;;15.62;92.17
18509;BME280;9383;50.928;12.116;2022-08-14T05:31:14;98495.03;;;15.29;92.49
18509;BME280;9383;50.928;12.116;2022-08-14T05:33:44;98539.09;;;15.66;92.90
18509;BME280;9383;50.928;12.116;2022-08-14T05:36:12;98441.63;;;15.15;93.68
18509;BME280;9383;50.928;12.116;2022-08-14T05:38:42;98550.16;;;15.88;94.70
18509;BME280;9383;50.928;12.116;2022-08-14T05:41:14;98546.47;;;15.91;95.73
18509;BME280;9383;50.928;12.116;2022-08-14T05:43:43;98550.19;;;16.03;96.27
18509;BME280;9383;50.928;12.116;2022-08-14T05:46:12;98548.75;;;16.12;96.75
18509;BME280;9383;50.928;12.116;2022-08-14T05:48:38;98540.88;;;16.23;96.90
18509;BME280;9383;50.928;12.116;2022-08-14T05:51:05;98526.69;;;16.36;97.15
18509;BME280;9383;50.928;12.116;2022-08-14T05:53:31;98533.06;;;16.48;97.76
18509;BME280;9383;50.928;12.116;2022-08-14T05:55:57;98533.72;;;16.51;98.66
18509;BME280;9383;50.928;12.116;2022-08-14T05:58:26;98512.63;;;16.47;99.38
18509;BME280;9383;50.928;12.116;2022-08-14T06:00:52;98501.63;;;16.51;100.00
18509;BME280;9383;50.928;12.116;2022-08-14T06:03:21;98423.91;;;16.12;100.00
18509;BME280;9383;50.928;12.116;2022-08-14T06:05:54;98508.63;;;16.80;100.00
18509;BME280;9383;50.928;12.116;2022-08-14T06:08:28;98518.09;;;16.98;100.00
18509;BME280;9383;50.928;12.116;2022-08-14T06:10:57;98520.38;;;17.05;100.00
18509;BME280;9383;50.928;12.116;2022-08-14T06:13:40;98516.66;;;17.20;100.00
18509;BME280;9383;50.928;12.116;2022-08-14T06:16:08;98487.63;;;17.14;100.00
18509;BME280;9383;50.928;12.116;2022-08-14T06:18:34;98528.44;;;17.43;100.00
18509;BME280;9383;50.928;12.116;2022-08-14T06:21:04;98504.09;;;17.47;100.00
18509;BME280;9383;50.928;12.116;2022-08-14T06:23:31;98525.50;;;17.72;100.00
18509;BME280;9383;50.928;12.116;2022-08-14T06:25:57;98453.31;;;17.45;100.00
18509;BME280;9383;50.928;12.116;2022-08-14T06:28:25;98515.47;;;18.00;100.00
18509;BME280;9383;50.928;12.116;2022-08-14T06:30:52;98465.78;;;17.83;100.00
18509;BME280;9383;50.928;12.116;2022-08-14T06:33:20;98507.75;;;18.22;100.00
18509;BME280;9383;50.928;12.116;2022-08-14T06:35:48;98510.47;;;18.33;100.00
18509;BME280;9383;50.928;12.116;2022-08-14T06:38:18;98487.16;;;18.34;100.00
18509;BME280;9383;50.928;12.116;2022-08-14T06:40:45;98485.53;;;18.44;100.00
18509;BME280;9383;50.928;12.116;2022-08-14T06:43:16;98490.19;;;18.53;100.00
18509;BME280;9383;50.928;12.116;2022-08-14T06:45:45;98509.97;;;18.88;100.00
18509;BME280;9383;50.928;12.116;2022-08-14T06:48:21;98513.34;;;19.03;100.00
18509;BME280;9383;50.928;12.116;2022-08-14T06:50:50;98467.25;;;18.85;100.00
18509;BME280;9383;50.928;12.116;2022-08-14T06:53:18;98509.25;;;19.33;100.00
18509;BME280;9383;50.928;12.116;2022-08-14T06:55:46;98504.50;;;19.48;100.00
18509;BME280;9383;50.928;12.116;2022-08-14T06:58:16;98488.94;;;19.63;99.71
18509;BME280;9383;50.928;12.116;2022-08-14T07:00:44;98485.91;;;19.79;98.71
18509;BME280;9383;50.928;12.116;2022-08-14T07:03:31;98481.97;;;19.95;97.87
18509;BME280;9383;50.928;12.116;2022-08-14T07:06:17;98424.41;;;19.75;96.91
18509;BME280;9383;50.928;12.116;2022-08-14T07:08:46;98433.06;;;19.90;96.23
18509;BME280;9383;50.928;12.116;2022-08-14T07:11:12;98394.00;;;19.74;95.10
18509;BME280;9383;50.928;12.116;2022-08-14T07:13:39;98389.56;;;19.85;93.91
18509;BME280;9383;50.928;12.116;2022-08-14T07:16:05;98488.16;;;20.62;93.08
18509;BME280;9383;50.928;12.116;2022-08-14T07:18:34;98489.81;;;20.75;91.49
18509;BME280;9383;50.928;12.116;2022-08-14T07:21:02;98414.56;;;20.41;91.44
18509;BME280;9383;50.928;12.116;2022-08-14T07:23:30;98480.78;;;20.97;91.17
18509;BME280;9383;50.928;12.116;2022-08-14T07:25:58;98437.38;;;20.79;90.67
18509;BME280;9383;50.928;12.116;2022-08-14T07:28:32;98440.03;;;20.90;89.97
18509;BME280;9383;50.928;12.116;2022-08-14T07:31:03;98487.66;;;21.32;89.11
18509;BME280;9383;50.928;12.116;2022-08-14T07:33:43;98490.53;;;21.41;87.33
18509;BME280;9383;50.928;12.116;2022-08-14T07:36:13;98469.03;;;21.50;87.32
18509;BME280;9383;50.928;12.116;2022-08-14T07:38:39;98456.78;;;21.46;86.57
18509;BME280;9383;50.928;12.116;2022-08-14T07:41:08;98446.59;;;21.60;86.40
18509;BME280;9383;50.928;12.116;2022-08-14T07:43:36;98465.47;;;21.81;86.06
18509;BME280;9383;50.928;12.116;2022-08-14T07:46:04;98419.22;;;21.64;85.38
18509;BME280;9383;50.928;12.116;2022-08-14T07:48:30;98473.78;;;22.09;84.80
18509;BME280;9383;50.928;12.116;2022-08-14T07:50:57;98471.78;;;22.21;84.85
18509;BME280;9383;50.928;12.116;2022-08-14T07:53:23;98417.34;;;21.96;80.66
18509;BME280;9383;50.928;12.116;2022-08-14T07:58:16;98370.19;;;21.90;81.77
18509;BME280;9383;50.928;12.116;2022-08-14T08:00:43;98466.16;;;22.64;80.40
18509;BME280;9383;50.928;12.116;2022-08-14T08:03:10;98457.34;;;22.71;78.66
18509;BME280;9383;50.928;12.116;2022-08-14T08:05:39;98379.44;;;22.37;77.15
18509;BME280;9383;50.928;12.116;2022-08-14T08:08:07;98383.13;;;22.56;77.23
18509;BME280;9383;50.928;12.116;2022-08-14T08:10:34;98463.38;;;23.13;75.49
18509;BME280;9383;50.928;12.116;2022-08-14T08:13:10;98407.56;;;22.84;73.66
18509;BME280;9383;50.928;12.116;2022-08-14T08:15:41;98383.53;;;22.71;73.56
18509;BME280;9383;50.928;12.116;2022-08-14T08:18:10;98449.84;;;23.23;70.42
18509;BME280;9383;50.928;12.116;2022-08-14T08:20:48;98447.69;;;23.36;71.38
18509;BME280;9383;50.928;12.116;2022-08-14T08:23:18;98464.53;;;23.58;71.53
18509;BME280;9383;50.928;12.116;2022-08-14T08:25:48;98412.06;;;23.41;70.23
18509;BME280;9383;50.928;12.116;2022-08-14T08:28:23;98463.28;;;23.80;69.94
18509;BME280;9383;50.928;12.116;2022-08-14T08:33:22;98449.63;;;23.82;67.51
18509;BME280;9383;50.928;12.116;2022-08-14T08:35:52;98462.63;;;23.96;68.49
18509;BME280;9383;50.928;12.116;2022-08-14T08:38:25;98460.06;;;24.05;68.19
18509;BME280;9383;50.928;12.116;2022-08-14T08:40:55;98447.91;;;24.09;66.73
18509;BME280;9383;50.928;12.116;2022-08-14T08:43:33;98448.25;;;24.24;67.12
18509;BME280;9383;50.928;12.116;2022-08-14T08:46:07;98401.63;;;24.02;65.37
18509;BME280;9383;50.928;12.116;2022-08-14T08:48:52;98433.84;;;24.41;66.58
18509;BME280;9383;50.928;12.116;2022-08-14T08:51:31;98442.59;;;24.53;64.66
18509;BME280;9383;50.928;12.116;2022-08-14T08:54:12;98420.59;;;24.56;64.39
18509;BME280;9383;50.928;12.116;2022-08-14T08:56:48;98391.72;;;24.47;63.83
18509;BME280;9383;50.928;12.116;2022-08-14T08:59:26;98435.06;;;24.83;64.13
18509;BME280;9383;50.928;12.116;2022-08-14T09:02:06;98436.31;;;24.89;62.64
18509;BME280;9383;50.928;12.116;2022-08-14T09:04:40;98413.59;;;24.90;62.04
18509;BME280;9383;50.928;12.116;2022-08-14T09:07:08;98424.50;;;24.98;62.35
18509;BME280;9383;50.928;12.116;2022-08-14T09:09:34;98366.84;;;24.70;61.61
18509;BME280;9383;50.928;12.116;2022-08-14T09:12:17;98410.50;;;25.11;62.32
18509;BME280;9383;50.928;12.116;2022-08-14T09:14:47;98396.06;;;25.03;62.91
18509;BME280;9383;50.928;12.116;2022-08-14T09:17:14;98409.06;;;25.25;62.15
18509;BME280;9383;50.928;12.116;2022-08-14T09:19:41;98358.97;;;25.03;61.67
18509;BME280;9383;50.928;12.116;2022-08-14T09:22:07;98373.31;;;25.30;61.00
18509;BME280;9383;50.928;12.116;2022-08-14T09:24:33;98356.56;;;25.35;61.13
18509;BME280;9383;50.928;12.116;2022-08-14T09:26:59;98318.31;;;25.11;60.25
18509;BME280;9383;50.928;12.116;2022-08-14T09:29:25;98377.88;;;25.56;58.74
18509;BME280;9383;50.928;12.116;2022-08-14T09:31:59;98327.88;;;25.32;60.00
18509;BME280;9383;50.928;12.116;2022-08-14T09:35:18;98386.91;;;25.81;60.99
18509;BME280;9383;50.928;12.116;2022-08-14T09:38:26;98377.28;;;25.95;59.47
18509;BME280;9383;50.928;12.116;2022-08-14T09:41:08;98370.69;;;26.06;59.13
18509;BME280;9383;50.928;12.116;2022-08-14T09:44:00;98359.31;;;26.11;57.28
18509;BME280;9383;50.928;12.116;2022-08-14T09:46:28;98297.16;;;25.83;57.85
18509;BME280;9383;50.928;12.116;2022-08-14T09:48:59;98352.22;;;26.35;56.62
18509;BME280;9383;50.928;12.116;2022-08-14T09:51:27;98340.66;;;26.41;56.42
18509;BME280;9383;50.928;12.116;2022-08-14T09:54:08;98299.94;;;26.24;56.22
18509;BME280;9383;50.928;12.116;2022-08-14T09:56:45;98356.63;;;26.69;55.98
18509;BME280;9383;50.928;12.116;2022-08-14T09:59:15;98361.00;;;26.78;55.84
18509;BME280;9383;50.928;12.116;2022-08-14T10:01:45;98336.53;;;26.78;54.82
18509;BME280;9383;50.928;12.116;2022-08-14T10:04:26;98291.91;;;26.56;52.37
18509;BME280;9383;50.928;12.116;2022-08-14T10:06:53;98350.63;;;26.99;53.10
18509;BME280;9383;50.928;12.116;2022-08-14T10:09:20;98288.28;;;26.80;51.36
18509;BME280;9383;50.928;12.116;2022-08-14T10:11:57;98342.94;;;27.19;50.88
18509;BME280;9383;50.928;12.116;2022-08-14T10:14:28;98255.00;;;26.70;50.61
18509;BME280;9383;50.928;12.116;2022-08-14T10:16:57;98333.03;;;27.26;50.09
18509;BME280;9383;50.928;12.116;2022-08-14T10:19:25;98345.22;;;27.38;49.31
18509;BME280;9383;50.928;12.116;2022-08-14T10:22:00;98316.16;;;27.39;47.73
18509;BME280;9383;50.928;12.116;2022-08-14T10:24:36;98275.25;;;27.16;48.83
18509;BME280;9383;50.928;12.116;2022-08-14T10:27:18;98319.97;;;27.61;48.62
18509;BME280;9383;50.928;12.116;2022-08-14T10:30:11;98303.78;;;27.60;46.89
18509;BME280;9383;50.928;12.116;2022-08-14T10:32:46;98309.06;;;27.61;44.65
18509;BME280;9383;50.928;12.116;2022-08-14T10:35:15;98239.53;;;27.19;45.20
18509;BME280;9383;50.928;12.116;2022-08-14T10:37:47;98320.59;;;27.72;45.00
18509;BME280;9383;50.928;12.116;2022-08-14T10:40:29;98322.94;;;27.75;42.13
18509;BME280;9383;50.928;12.116;2022-08-14T10:42:56;98311.50;;;27.79;42.96
18509;BME280;9383;50.928;12.116;2022-08-14T10:45:30;98300.97;;;27.76;43.03
18509;BME280;9383;50.928;12.116;2022-08-14T10:47:57;98284.44;;;27.78;43.20
18509;BME280;9383;50.928;12.116;2022-08-14T10:50:35;98312.75;;;28.00;41.51
18509;BME280;9383;50.928;12.116;2022-08-14T10:53:06;98285.53;;;27.92;41.32
18509;BME280;9383;50.928;12.116;2022-08-14T10:55:36;98302.63;;;28.09;42.42
18509;BME280;9383;50.928;12.116;2022-08-14T10:58:07;98294.06;;;28.12;42.79
18509;BME280;9383;50.928;12.116;2022-08-14T11:00:38;98227.34;;;27.70;42.20
18509;BME280;9383;50.928;12.116;2022-08-14T11:03:10;98222.44;;;27.65;42.76
18509;BME280;9383;50.928;12.116;2022-08-14T11:05:42;98289.94;;;28.16;43.31
18509;BME280;9383;50.928;12.116;2022-08-14T11:08:11;98240.81;;;27.86;42.59
18509;BME280;9383;50.928;12.116;2022-08-14T11:11:04;98256.34;;;28.01;43.49
18509;BME280;9383;50.928;12.116;2022-08-14T11:13:32;98248.72;;;27.96;43.33
18509;BME280;9383;50.928;12.116;2022-08-14T11:16:00;98272.75;;;28.16;42.35
18509;BME280;9383;50.928;12.116;2022-08-14T11:18:29;98208.56;;;27.75;43.71
18509;BME280;9383;50.928;12.116;2022-08-14T11:20:59;98253.69;;;28.16;43.40
18509;BME280;9383;50.928;12.116;2022-08-14T11:23:32;98273.66;;;28.31;41.78
18509;BME280;9383;50.928;12.116;2022-08-14T11:26:00;98262.75;;;28.31;42.60
18509;BME280;9383;50.928;12.116;2022-08-14T11:28:33;98168.00;;;27.80;43.45
18509;BME280;9383;50.928;12.116;2022-08-14T11:31:02;98243.03;;;28.29;42.29
18509;BME280;9383;50.928;12.116;2022-08-14T11:33:29;98238.31;;;28.38;43.39
18509;BME280;9383;50.928;12.116;2022-08-14T11:36:03;98244.06;;;28.43;42.61
18509;BME280;9383;50.928;12.116;2022-08-14T11:38:44;98256.66;;;28.59;42.65
18509;BME280;9383;50.928;12.116;2022-08-14T11:41:13;98170.81;;;28.10;42.07
18509;BME280;9383;50.928;12.116;2022-08-14T11:43:47;98204.56;;;28.24;40.23
18509;BME280;9383;50.928;12.116;2022-08-14T11:46:14;98229.88;;;28.48;41.61
18509;BME280;9383;50.928;12.116;2022-08-14T11:48:46;98253.56;;;28.62;40.42
18509;BME280;9383;50.928;12.116;2022-08-14T11:51:16;98214.63;;;28.54;41.26
18509;BME280;9383;50.928;12.116;2022-08-14T11:53:59;98228.84;;;28.64;39.99
18509;BME280;9383;50.928;12.116;2022-08-14T11:56:37;98231.56;;;28.64;40.08
18509;BME280;9383;50.928;12.116;2022-08-14T11:59:16;98232.88;;;28.68;40.93
18509;BME280;9383;50.928;12.116;2022-08-14T12:01:43;98211.66;;;28.63;40.78
18509;BME280;9383;50.928;12.116;2022-08-14T12:04:16;98206.47;;;28.69;41.43
18509;BME280;9383;50.928;12.116;2022-08-14T12:06:48;98214.84;;;28.82;41.28
18509;BME280;9383;50.928;12.116;2022-08-14T12:09:33;98210.25;;;28.83;40.62
18509;BME280;9383;50.928;12.116;2022-08-14T12:12:15;98208.28;;;28.91;38.99
18509;BME280;9383;50.928;12.116;2022-08-14T12:14:53;98194.16;;;28.88;39.68
18509;BME280;9383;50.928;12.116;2022-08-14T12:17:30;98208.34;;;28.98;39.93
18509;BME280;9383;50.928;12.116;2022-08-14T12:20:04;98193.94;;;29.04;40.39
18509;BME280;9383;50.928;12.116;2022-08-14T12:22:40;98194.97;;;29.03;37.79
18509;BME280;9383;50.928;12.116;2022-08-14T12:25:12;98190.38;;;29.04;37.94
18509;BME280;9383;50.928;12.116;2022-08-14T12:27:42;98180.19;;;28.98;38.47
18509;BME280;9383;50.928;12.116;2022-08-14T12:30:13;98177.75;;;29.03;39.19
18509;BME280;9383;50.928;12.116;2022-08-14T12:32:43;98133.97;;;28.89;38.28
18509;BME280;9383;50.928;12.116;2022-08-14T12:35:12;98129.63;;;28.95;37.60
18509;BME280;9383;50.928;12.116;2022-08-14T12:37:50;98108.16;;;28.92;37.57
18509;BME280;9383;50.928;12.116;2022-08-14T12:40:18;98140.28;;;29.12;35.91
18509;BME280;9383;50.928;12.116;2022-08-14T12:42:49;98156.41;;;29.28;37.18
18509;BME280;9383;50.928;12.116;2022-08-14T12:45:16;98100.84;;;28.92;36.68
18509;BME280;9383;50.928;12.116;2022-08-14T12:47:45;98159.59;;;29.32;37.18
18509;BME280;9383;50.928;12.116;2022-08-14T12:50:11;98131.06;;;29.13;36.76
18509;BME280;9383;50.928;12.116;2022-08-14T12:52:40;98172.25;;;29.40;36.90
18509;BME280;9383;50.928;12.116;2022-08-14T12:55:14;98126.25;;;29.15;35.68
18509;BME280;9383;50.928;12.116;2022-08-14T12:57:46;98055.78;;;28.82;36.18
18509;BME280;9383;50.928;12.116;2022-08-14T13:00:19;98143.56;;;29.44;36.88
18509;BME280;9383;50.928;12.116;2022-08-14T13:02:52;98081.06;;;29.12;37.86
18509;BME280;9383;50.928;12.116;2022-08-14T13:05:28;98091.09;;;29.27;36.70
18509;BME280;9383;50.928;12.116;2022-08-14T13:07:58;98094.78;;;29.41;35.67
18509;BME280;9383;50.928;12.116;2022-08-14T13:10:25;98063.13;;;29.25;35.08
18509;BME280;9383;50.928;12.116;2022-08-14T13:12:56;98033.81;;;29.05;35.86
18509;BME280;9383;50.928;12.116;2022-08-14T13:15:23;98119.88;;;29.73;36.18
18509;BME280;9383;50.928;12.116;2022-08-14T13:17:53;98071.97;;;29.48;35.56
18509;BME280;9383;50.928;12.116;2022-08-14T13:20:25;98106.22;;;29.73;35.88
18509;BME280;9383;50.928;12.116;2022-08-14T13:22:54;98104.59;;;29.79;36.00
18509;BME280;9383;50.928;12.116;2022-08-14T13:25:25;98111.09;;;29.78;35.14